createdAt,value
2022-12-04T00:02:10.621Z,17.88
2022-12-04T00:04:37.324Z,19.20
2022-12-04T00:07:04.117Z,18.02
2022-12-04T00:09:30.651Z,17.13
2022-12-04T00:11:57.326Z,18.42
2022-12-04T00:14:24.084Z,17.70
2022-12-04T00:16:50.700Z,17.70
2022-12-04T00:19:17.695Z,17.25
2022-12-04T00:21:45.467Z,17.75
2022-12-04T00:24:12.498Z,17.65
2022-12-04T00:26:39.030Z,17.90
2022-12-04T00:29:05.636Z,19.73
2022-12-04T00:31:32.740Z,18.45
2022-12-04T00:34:00.588Z,19.58
2022-12-04T00:36:29.028Z,19.75
2022-12-04T00:38:55.828Z,19.65
2022-12-04T00:41:24.967Z,18.38
2022-12-04T00:43:52.280Z,18.80
2022-12-04T00:46:19.448Z,18.92
2022-12-04T00:48:46.588Z,19.05
2022-12-04T00:51:21.897Z,17.80
2022-12-04T00:53:49.124Z,18.58
2022-12-04T00:56:18.837Z,17.10
2022-12-04T00:58:46.101Z,18.13
2022-12-04T01:01:18.939Z,18.08
2022-12-04T01:03:46.177Z,18.42
2022-12-04T01:06:23.552Z,18.70
2022-12-04T01:08:52.278Z,17.55
2022-12-04T01:11:19.628Z,18.20
2022-12-04T01:13:46.213Z,17.88
2022-12-04T01:16:20.647Z,18.20
2022-12-04T01:18:47.478Z,19.00
2022-12-04T01:21:14.021Z,17.55
2022-12-04T01:23:40.777Z,18.15
2022-12-04T01:26:07.631Z,20.13
2022-12-04T01:28:34.438Z,19.95
2022-12-04T01:31:02.365Z,19.25
2022-12-04T01:33:30.533Z,18.80
2022-12-04T01:35:59.307Z,19.45
2022-12-04T01:38:26.401Z,18.33
2022-12-04T01:40:53.932Z,18.65
2022-12-04T01:43:21.201Z,19.85
2022-12-04T01:45:58.796Z,18.92
2022-12-04T01:48:32.713Z,20.95
2022-12-04T01:51:09.110Z,20.23
2022-12-04T01:53:39.975Z,20.50
2022-12-04T01:56:07.194Z,19.55
2022-12-04T01:58:39.989Z,19.90
2022-12-04T02:01:09.094Z,21.63
2022-12-04T02:03:37.801Z,20.65
2022-12-04T02:06:05.352Z,21.10
2022-12-04T02:08:32.732Z,20.52
2022-12-04T02:11:31.044Z,20.92
2022-12-04T02:14:00.447Z,19.73
2022-12-04T02:16:29.969Z,21.23
2022-12-04T02:19:14.197Z,20.30
2022-12-04T02:21:44.961Z,21.95
2022-12-04T02:24:49.768Z,22.75
2022-12-04T02:27:19.721Z,21.98
2022-12-04T02:29:53.695Z,21.80
2022-12-04T02:32:44.623Z,22.33
2022-12-04T02:35:23.297Z,22.10
2022-12-04T02:37:55.938Z,21.95
2022-12-04T02:40:30.167Z,22.83
2022-12-04T02:43:31.050Z,23.05
2022-12-04T02:45:57.580Z,25.13
2022-12-04T02:48:26.510Z,23.48
2022-12-04T02:50:56.068Z,21.10
2022-12-04T02:53:47.765Z,22.60
2022-12-04T02:56:20.068Z,21.95
2022-12-04T02:58:58.305Z,22.60
2022-12-04T03:01:33.055Z,22.42
2022-12-04T03:04:13.326Z,22.77
2022-12-04T03:06:44.320Z,22.05
2022-12-04T03:09:17.269Z,20.58
2022-12-04T03:11:49.961Z,21.13
2022-12-04T03:14:31.652Z,19.67
2022-12-04T03:17:07.453Z,20.02
2022-12-04T03:19:41.959Z,21.08
2022-12-04T03:22:13.689Z,21.33
2022-12-04T03:24:50.981Z,20.58
2022-12-04T03:27:27.363Z,21.38
2022-12-04T03:29:57.629Z,22.10
2022-12-04T03:32:40.021Z,21.73
2022-12-04T03:35:27.159Z,20.67
2022-12-04T03:38:21.285Z,22.98
2022-12-04T03:41:03.585Z,23.23
2022-12-04T03:43:37.509Z,23.35
2022-12-04T03:46:08.836Z,23.27
2022-12-04T03:48:45.420Z,24.77
2022-12-04T03:51:23.683Z,22.33
2022-12-04T03:53:55.316Z,22.10
2022-12-04T03:56:26.792Z,21.95
2022-12-04T03:58:58.058Z,22.67
2022-12-04T04:01:30.369Z,22.88
2022-12-04T04:03:59.098Z,22.15
2022-12-04T04:06:31.940Z,21.58
2022-12-04T04:09:05.385Z,21.65
2022-12-04T04:11:37.842Z,20.70
2022-12-04T04:14:45.940Z,19.83
2022-12-04T04:17:38.232Z,19.58
2022-12-04T04:20:33.913Z,18.80
2022-12-04T04:23:21.890Z,17.92
2022-12-04T04:25:48.907Z,17.48
2022-12-04T04:28:35.057Z,17.95
2022-12-04T04:31:28.921Z,18.60
2022-12-04T04:34:07.685Z,18.58
2022-12-04T04:36:50.639Z,18.38
2022-12-04T04:39:45.725Z,17.83
2022-12-04T04:42:14.883Z,18.35
2022-12-04T04:44:49.429Z,18.25
2022-12-04T04:47:38.158Z,16.95
2022-12-04T04:50:08.593Z,16.52
2022-12-04T04:52:37.733Z,16.50
2022-12-04T04:55:05.389Z,18.45
2022-12-04T04:57:35.959Z,20.90
2022-12-04T05:00:06.149Z,18.48
2022-12-04T05:02:33.863Z,19.27
2022-12-04T05:05:00.503Z,19.67
2022-12-04T05:07:27.179Z,17.90
2022-12-04T05:09:54.218Z,17.13
2022-12-04T05:12:21.141Z,17.52
2022-12-04T05:14:48.344Z,16.23
2022-12-04T05:17:15.472Z,16.70
2022-12-04T05:19:54.457Z,16.35
2022-12-04T05:22:22.617Z,17.73
2022-12-04T05:24:49.174Z,19.67
2022-12-04T05:27:15.800Z,21.38
2022-12-04T05:29:42.370Z,21.13
2022-12-04T05:32:08.967Z,20.40
2022-12-04T05:34:35.517Z,18.67
2022-12-04T05:37:02.059Z,18.27
2022-12-04T05:39:28.580Z,17.42
2022-12-04T05:41:55.101Z,16.48
2022-12-04T05:44:21.636Z,16.67
2022-12-04T05:46:48.268Z,15.75
2022-12-04T05:49:14.969Z,17.23
2022-12-04T05:51:41.520Z,17.17
2022-12-04T05:54:08.171Z,16.67
2022-12-04T05:56:34.709Z,15.73
2022-12-04T05:59:01.191Z,12.88
2022-12-04T06:01:27.859Z,14.48
2022-12-04T06:03:54.524Z,12.48
2022-12-04T06:06:24.740Z,14.45
2022-12-04T06:08:53.489Z,15.50
2022-12-04T06:11:23.929Z,17.15
2022-12-04T06:13:50.925Z,16.13
2022-12-04T06:16:22.975Z,15.00
2022-12-04T06:18:51.934Z,14.77
2022-12-04T06:21:19.081Z,14.27
2022-12-04T06:23:45.825Z,14.48
2022-12-04T06:26:12.814Z,14.13
2022-12-04T06:28:39.371Z,12.75
2022-12-04T06:31:08.340Z,12.68
2022-12-04T06:33:35.760Z,13.75
2022-12-04T06:36:05.250Z,14.82
2022-12-04T06:38:32.408Z,13.05
2022-12-04T06:40:59.184Z,13.77
2022-12-04T06:43:25.966Z,12.45
2022-12-04T06:46:08.394Z,12.02
2022-12-04T06:48:35.420Z,13.57
2022-12-04T06:51:10.499Z,17.83
2022-12-04T06:53:37.060Z,16.63
2022-12-04T06:56:07.872Z,15.20
2022-12-04T06:58:35.349Z,15.95
2022-12-04T07:01:10.064Z,16.90
2022-12-04T07:03:37.842Z,16.40
2022-12-04T07:06:24.668Z,17.35
2022-12-04T07:08:54.452Z,16.52
2022-12-04T07:11:22.373Z,15.85
2022-12-04T07:13:49.917Z,15.88
2022-12-04T07:16:19.014Z,15.50
2022-12-04T07:18:46.337Z,16.33
2022-12-04T07:21:21.572Z,17.08
2022-12-04T07:23:52.934Z,17.17
2022-12-04T07:26:20.551Z,15.25
2022-12-04T07:28:47.438Z,16.85
2022-12-04T07:31:16.777Z,16.70
2022-12-04T07:33:45.033Z,15.10
2022-12-04T07:36:15.977Z,15.20
2022-12-04T07:38:42.975Z,15.77
2022-12-04T07:41:12.222Z,15.40
2022-12-04T07:43:39.205Z,15.98
2022-12-04T07:46:08.601Z,15.30
2022-12-04T07:48:35.253Z,16.98
2022-12-04T07:51:04.124Z,15.35
2022-12-04T07:53:30.786Z,15.48
2022-12-04T07:55:57.332Z,15.82
2022-12-04T07:58:23.870Z,15.50
2022-12-04T08:00:50.499Z,18.83
2022-12-04T08:03:17.345Z,18.27
2022-12-04T08:05:43.855Z,15.40
2022-12-04T08:08:10.439Z,16.90
2022-12-04T08:10:40.403Z,16.00
2022-12-04T08:13:07.210Z,15.55
2022-12-04T08:15:35.031Z,16.05
2022-12-04T08:18:01.622Z,16.15
2022-12-04T08:20:28.164Z,16.50
2022-12-04T08:22:54.690Z,17.23
2022-12-04T08:25:21.332Z,16.33
2022-12-04T08:27:48.045Z,17.88
2022-12-04T08:30:14.714Z,18.55
2022-12-04T08:32:41.341Z,19.13
2022-12-04T08:35:08.379Z,17.40
2022-12-04T08:37:35.016Z,19.80
2022-12-04T08:40:01.698Z,17.75
2022-12-04T08:42:28.295Z,18.10
2022-12-04T08:44:54.851Z,18.30
2022-12-04T08:47:21.400Z,17.15
2022-12-04T08:49:48.048Z,15.85
2022-12-04T08:52:14.609Z,16.25
2022-12-04T08:54:41.153Z,17.60
2022-12-04T08:57:08.013Z,18.33
2022-12-04T08:59:34.597Z,17.60
2022-12-04T09:02:01.176Z,19.00
2022-12-04T09:04:27.851Z,18.92
2022-12-04T09:06:54.386Z,20.10
2022-12-04T09:09:20.914Z,18.55
2022-12-04T09:11:47.547Z,19.17
2022-12-04T09:14:14.141Z,18.77
2022-12-04T09:16:40.715Z,18.98
2022-12-04T09:19:07.241Z,18.85
2022-12-04T09:21:33.782Z,19.33
2022-12-04T09:24:00.351Z,25.55
2022-12-04T09:26:31.023Z,21.63
2022-12-04T09:29:00.063Z,18.75
2022-12-04T09:31:27.429Z,21.15
2022-12-04T09:33:54.458Z,23.73
2022-12-04T09:36:21.461Z,21.15
2022-12-04T09:38:51.115Z,21.63
2022-12-04T09:41:38.773Z,18.30
2022-12-04T09:44:36.496Z,21.33
2022-12-04T09:47:09.528Z,20.17
2022-12-04T09:50:01.682Z,19.48
2022-12-04T09:52:44.368Z,18.42
2022-12-04T09:55:17.886Z,19.60
2022-12-04T09:57:51.309Z,25.35
2022-12-04T10:00:20.416Z,21.40
2022-12-04T10:03:01.545Z,23.08
2022-12-04T10:05:48.069Z,25.23
2022-12-04T10:08:17.779Z,23.20
2022-12-04T10:11:14.690Z,28.77
2022-12-04T10:14:03.037Z,25.90
2022-12-04T10:16:41.762Z,23.25
2022-12-04T10:19:20.377Z,21.33
2022-12-04T10:22:05.780Z,25.85
2022-12-04T10:24:54.108Z,23.02
2022-12-04T10:27:32.732Z,21.80
2022-12-04T10:30:05.893Z,24.48
2022-12-04T10:32:34.390Z,22.40
2022-12-04T10:35:20.363Z,28.92
2022-12-04T10:37:51.718Z,21.13
2022-12-04T10:40:37.516Z,19.00
2022-12-04T10:43:41.447Z,17.05
2022-12-04T10:46:14.310Z,17.02
2022-12-04T10:48:43.165Z,17.00
2022-12-04T10:51:16.307Z,18.17
2022-12-04T10:53:44.689Z,17.17
2022-12-04T10:56:20.573Z,18.65
2022-12-04T10:59:00.835Z,20.73
2022-12-04T11:01:33.098Z,17.52
2022-12-04T11:04:04.075Z,19.30
2022-12-04T11:06:31.414Z,18.70
2022-12-04T11:08:59.595Z,18.70
2022-12-04T11:11:34.663Z,18.85
2022-12-04T11:14:13.486Z,18.58
2022-12-04T11:16:44.748Z,19.38
2022-12-04T11:19:26.242Z,20.27
2022-12-04T11:22:05.975Z,20.13
2022-12-04T11:24:40.597Z,19.08
2022-12-04T11:27:16.706Z,19.33
2022-12-04T11:29:45.829Z,17.30
2022-12-04T11:32:24.042Z,17.52
2022-12-04T11:34:54.205Z,17.52
2022-12-04T11:37:35.857Z,17.65
2022-12-04T11:40:07.515Z,18.50
2022-12-04T11:42:34.102Z,18.88
2022-12-04T11:45:20.155Z,18.27
2022-12-04T11:47:55.294Z,18.40
2022-12-04T11:50:28.466Z,18.90
2022-12-04T11:53:07.315Z,19.67
2022-12-04T11:55:48.708Z,18.92
2022-12-04T11:58:46.935Z,17.27
2022-12-04T12:01:46.090Z,19.67
2022-12-04T12:04:21.680Z,20.10
2022-12-04T12:07:03.983Z,18.90
2022-12-04T12:09:33.448Z,18.17
2022-12-04T12:12:10.306Z,20.13
2022-12-04T12:14:51.729Z,17.65
2022-12-04T12:17:47.553Z,17.52
2022-12-04T12:20:28.762Z,17.42
2022-12-04T12:23:13.763Z,17.97
2022-12-04T12:25:53.032Z,16.98
2022-12-04T12:28:48.818Z,18.63
2022-12-04T12:31:36.858Z,18.33
2022-12-04T12:34:27.198Z,17.23
2022-12-04T12:36:59.388Z,16.88
2022-12-04T12:39:43.817Z,28.65
2022-12-04T12:42:20.981Z,47.67
2022-12-04T12:44:55.961Z,22.08
2022-12-04T12:47:40.400Z,22.15
2022-12-04T12:50:07.402Z,16.90
2022-12-04T12:52:51.932Z,15.77
2022-12-04T12:55:25.965Z,17.60
2022-12-04T12:58:38.154Z,15.45
2022-12-04T13:01:34.687Z,17.70
2022-12-04T13:04:22.758Z,16.20
2022-12-04T13:07:05.115Z,16.63
2022-12-04T13:09:37.543Z,16.10
2022-12-04T13:12:10.833Z,18.48
2022-12-04T13:14:37.715Z,17.05
2022-12-04T13:17:12.606Z,19.10
2022-12-04T13:19:48.379Z,17.75
2022-12-04T13:22:59.348Z,18.98
2022-12-04T13:25:28.891Z,18.63
2022-12-04T13:28:07.742Z,19.75
2022-12-04T13:30:55.222Z,20.17
2022-12-04T13:33:29.111Z,18.73
2022-12-04T13:36:16.945Z,18.20
2022-12-04T13:39:20.917Z,19.02
2022-12-04T13:41:56.061Z,20.25
2022-12-04T13:44:25.393Z,19.65
2022-12-04T13:46:59.821Z,20.10
2022-12-04T13:49:32.311Z,20.23
2022-12-04T13:52:02.259Z,17.25
2022-12-04T13:54:34.605Z,27.83
2022-12-04T13:57:19.618Z,53.03
2022-12-04T13:59:47.593Z,41.67
2022-12-04T14:02:28.861Z,40.30
2022-12-04T14:05:01.720Z,25.00
2022-12-04T14:07:41.778Z,22.65
2022-12-04T14:10:28.147Z,21.67
2022-12-04T14:13:02.183Z,20.25
2022-12-04T14:15:35.663Z,19.30
2022-12-04T14:18:16.519Z,18.90
2022-12-04T14:20:46.929Z,20.20
2022-12-04T14:23:17.955Z,23.30
2022-12-04T14:25:44.531Z,22.30
2022-12-04T14:28:35.968Z,19.45
2022-12-04T14:31:25.871Z,19.75
2022-12-04T14:34:23.319Z,22.42
2022-12-04T14:36:55.331Z,21.85
2022-12-04T14:39:32.064Z,20.35
2022-12-04T14:42:13.348Z,20.08
2022-12-04T14:44:40.214Z,18.35
2022-12-04T14:47:22.109Z,17.75
2022-12-04T14:50:16.290Z,17.13
2022-12-04T14:52:49.059Z,18.15
2022-12-04T14:55:28.821Z,18.05
2022-12-04T14:58:21.720Z,18.48
2022-12-04T15:00:53.740Z,17.55
2022-12-04T15:03:22.749Z,17.08
2022-12-04T15:05:50.921Z,18.45
2022-12-04T15:08:20.307Z,18.50
2022-12-04T15:11:09.707Z,17.90
2022-12-04T15:13:38.478Z,19.38
2022-12-04T15:16:17.352Z,17.17
2022-12-04T15:18:57.523Z,17.98
2022-12-04T15:21:36.474Z,20.63
2022-12-04T15:24:08.508Z,31.95
2022-12-04T15:26:37.236Z,37.15
2022-12-04T15:29:07.715Z,21.30
2022-12-04T15:31:53.433Z,18.10
2022-12-04T15:34:25.072Z,18.10
2022-12-04T15:37:03.166Z,19.27
2022-12-04T15:39:33.228Z,18.38
2022-12-04T15:42:14.586Z,18.67
2022-12-04T15:44:51.541Z,19.48
2022-12-04T15:47:22.302Z,18.35
2022-12-04T15:49:48.936Z,18.85
2022-12-04T15:52:19.051Z,18.20
2022-12-04T15:55:02.534Z,18.58
2022-12-04T15:57:35.382Z,18.90
2022-12-04T16:00:05.364Z,18.90
2022-12-04T16:02:35.365Z,20.67
2022-12-04T16:05:38.066Z,20.63
2022-12-04T16:08:22.790Z,18.60
2022-12-04T16:11:22.095Z,20.13
2022-12-04T16:14:14.026Z,21.42
2022-12-04T16:16:43.746Z,22.02
2022-12-04T16:19:33.010Z,22.35
2022-12-04T16:22:02.299Z,23.00
2022-12-04T16:24:28.929Z,41.38
2022-12-04T16:26:56.731Z,73.95
2022-12-04T16:29:23.724Z,37.38
2022-12-04T16:31:51.205Z,30.50
2022-12-04T16:34:18.291Z,50.03
2022-12-04T16:36:44.951Z,30.63
2022-12-04T16:39:11.503Z,39.25
2022-12-04T16:41:38.324Z,23.20
2022-12-04T16:44:12.229Z,19.98
2022-12-04T16:46:38.808Z,19.98
2022-12-04T16:49:07.661Z,19.83
2022-12-04T16:51:37.371Z,21.70
2022-12-04T16:54:03.939Z,21.33
2022-12-04T16:56:30.490Z,20.33
2022-12-04T16:58:57.012Z,20.60
2022-12-04T17:01:27.613Z,20.63
2022-12-04T17:03:54.263Z,20.80
2022-12-04T17:06:21.065Z,20.05
2022-12-04T17:08:47.800Z,20.88
2022-12-04T17:11:17.062Z,20.67
2022-12-04T17:13:43.996Z,21.02
2022-12-04T17:16:14.631Z,19.17
2022-12-04T17:18:42.283Z,26.83
2022-12-04T17:21:11.310Z,29.02
2022-12-04T17:23:38.162Z,38.75
2022-12-04T17:26:07.182Z,28.27
2022-12-04T17:28:34.305Z,35.92
2022-12-04T17:31:02.675Z,23.52
2022-12-04T17:33:29.271Z,19.15
2022-12-04T17:35:55.999Z,18.20
2022-12-04T17:38:22.541Z,18.08
2022-12-04T17:41:02.339Z,21.25
2022-12-04T17:43:30.293Z,19.63
2022-12-04T17:45:57.567Z,18.75
2022-12-04T17:48:24.348Z,17.77
2022-12-04T17:50:51.066Z,18.88
2022-12-04T17:53:17.678Z,18.00
2022-12-04T17:55:44.192Z,18.10
2022-12-04T17:58:10.709Z,19.40
2022-12-04T18:00:37.514Z,18.77
2022-12-04T18:03:04.457Z,19.85
2022-12-04T18:05:31.260Z,18.88
2022-12-04T18:07:57.872Z,19.83
2022-12-04T18:10:24.499Z,19.70
2022-12-04T18:12:51.105Z,19.30
2022-12-04T18:15:17.751Z,17.58
2022-12-04T18:17:44.325Z,19.35
2022-12-04T18:20:11.306Z,19.63
2022-12-04T18:22:37.994Z,18.08
2022-12-04T18:25:04.783Z,18.17
2022-12-04T18:27:31.452Z,18.20
2022-12-04T18:29:58.159Z,20.05
2022-12-04T18:32:24.838Z,19.10
2022-12-04T18:34:51.346Z,17.90
2022-12-04T18:37:18.341Z,18.30
2022-12-04T18:39:44.866Z,18.25
2022-12-04T18:42:11.382Z,17.85
2022-12-04T18:44:38.020Z,17.90
2022-12-04T18:47:04.676Z,18.10
2022-12-04T18:49:31.220Z,17.13
2022-12-04T18:51:58.964Z,17.38
2022-12-04T18:54:25.785Z,17.40
2022-12-04T18:56:52.359Z,16.83
2022-12-04T18:59:21.735Z,18.52
2022-12-04T19:01:51.651Z,16.92
2022-12-04T19:04:20.436Z,17.80
2022-12-04T19:06:50.316Z,16.63
2022-12-04T19:09:19.540Z,17.48
2022-12-04T19:11:46.711Z,16.98
2022-12-04T19:14:22.323Z,17.65
2022-12-04T19:16:50.434Z,19.13
2022-12-04T19:19:17.762Z,33.53
2022-12-04T19:21:44.542Z,19.63
2022-12-04T19:24:11.773Z,42.33
2022-12-04T19:26:38.977Z,19.73
2022-12-04T19:29:07.115Z,19.75
2022-12-04T19:31:35.851Z,26.33
2022-12-04T19:34:02.925Z,18.67
2022-12-04T19:36:31.505Z,20.23
2022-12-04T19:38:58.905Z,20.25
2022-12-04T19:41:30.284Z,19.08
2022-12-04T19:43:59.038Z,17.95
2022-12-04T19:46:29.308Z,18.20
2022-12-04T19:48:58.754Z,19.25
2022-12-04T19:51:25.763Z,19.35
2022-12-04T19:53:54.627Z,18.63
2022-12-04T19:56:24.761Z,19.75
2022-12-04T19:58:53.155Z,17.95
2022-12-04T20:01:25.370Z,19.65
2022-12-04T20:03:52.584Z,19.13
2022-12-04T20:06:22.886Z,20.52
2022-12-04T20:08:55.943Z,21.02
2022-12-04T20:11:23.168Z,18.92
2022-12-04T20:13:53.992Z,20.38
2022-12-04T20:16:20.677Z,21.17
2022-12-04T20:18:47.364Z,19.70
2022-12-04T20:21:14.381Z,20.90
2022-12-04T20:23:50.032Z,19.80
2022-12-04T20:26:38.351Z,21.05
2022-12-04T20:29:06.865Z,21.10
2022-12-04T20:31:36.426Z,21.25
2022-12-04T20:34:06.863Z,20.65
2022-12-04T20:36:38.077Z,21.42
2022-12-04T20:39:05.765Z,21.35
2022-12-04T20:41:33.391Z,22.55
2022-12-04T20:44:02.132Z,23.38
2022-12-04T20:46:37.837Z,21.55
2022-12-04T20:49:08.555Z,21.73
2022-12-04T20:51:38.171Z,20.60
2022-12-04T20:54:05.847Z,20.60
2022-12-04T20:56:34.768Z,21.85
2022-12-04T20:59:05.605Z,20.88
2022-12-04T21:01:33.412Z,21.40
2022-12-04T21:04:00.749Z,21.98
2022-12-04T21:06:34.461Z,21.25
2022-12-04T21:09:06.008Z,21.50
2022-12-04T21:11:38.337Z,20.53
2022-12-04T21:14:27.177Z,19.67
2022-12-04T21:16:53.716Z,19.02
2022-12-04T21:19:21.900Z,18.38
2022-12-04T21:21:49.431Z,17.83
2022-12-04T21:24:18.061Z,19.27
2022-12-04T21:26:45.446Z,18.48
2022-12-04T21:29:12.010Z,18.33
2022-12-04T21:31:39.368Z,18.45
2022-12-04T21:34:08.138Z,16.45
2022-12-04T21:36:34.981Z,16.77
2022-12-04T21:39:01.841Z,18.48
2022-12-04T21:41:46.776Z,19.33
2022-12-04T21:44:18.317Z,17.52
2022-12-04T21:46:46.224Z,19.33
2022-12-04T21:49:13.803Z,18.50
2022-12-04T21:51:56.904Z,18.25
2022-12-04T21:54:25.091Z,17.67
2022-12-04T21:56:51.646Z,17.17
2022-12-04T21:59:18.384Z,16.45
2022-12-04T22:01:44.988Z,18.45
2022-12-04T22:04:11.817Z,16.90
2022-12-04T22:06:38.463Z,15.60
2022-12-04T22:09:10.578Z,15.68
2022-12-04T22:11:38.221Z,15.80
2022-12-04T22:14:04.895Z,15.60
2022-12-04T22:16:34.613Z,14.65
2022-12-04T22:19:04.334Z,15.52
2022-12-04T22:21:30.917Z,15.13
2022-12-04T22:23:59.511Z,14.95
2022-12-04T22:26:27.231Z,14.73
2022-12-04T22:28:53.807Z,14.20
2022-12-04T22:31:22.577Z,14.77
2022-12-04T22:33:51.164Z,13.20
2022-12-04T22:36:20.561Z,15.10
2022-12-04T22:39:08.088Z,15.68
2022-12-04T22:41:34.060Z,14.75
2022-12-04T22:44:00.749Z,14.18
2022-12-04T22:46:27.441Z,14.20
2022-12-04T22:48:54.137Z,14.75
2022-12-04T22:51:22.345Z,15.88
2022-12-04T22:53:52.360Z,14.43
2022-12-04T22:56:28.184Z,15.75
2022-12-04T22:58:55.440Z,13.95
2022-12-04T23:01:25.072Z,13.60
2022-12-04T23:03:52.277Z,14.13
2022-12-04T23:06:20.856Z,14.98
2022-12-04T23:08:47.445Z,13.80
2022-12-04T23:11:19.783Z,14.50
2022-12-04T23:13:51.170Z,14.18
2022-12-04T23:16:20.264Z,15.80
2022-12-04T23:18:47.498Z,12.77
2022-12-04T23:21:14.761Z,13.68
2022-12-04T23:23:42.969Z,12.70
2022-12-04T23:26:12.558Z,12.35
2022-12-04T23:28:39.522Z,13.70
2022-12-04T23:31:06.337Z,13.30
2022-12-04T23:33:33.692Z,15.15
2022-12-04T23:36:02.501Z,12.82
2022-12-04T23:38:29.983Z,13.73
2022-12-04T23:41:07.087Z,13.55
2022-12-04T23:43:34.806Z,13.40
2022-12-04T23:46:04.593Z,13.50
2022-12-04T23:48:35.913Z,12.93
2022-12-04T23:51:02.420Z,12.27
2022-12-04T23:53:29.066Z,11.60
2022-12-04T23:55:59.387Z,12.52
2022-12-04T23:58:26.364Z,12.18
